Sheldon, IA

6:17 PM CST on February 24, 2017 (GMT -0600)
Sheldon Municipal

Weather History for KSHL - December, 2011

Change the Weather History Date:

Thursday, December 15, 2011

  Actual Average Record
Temperature  
Mean Temperature 24 °F -  
Max Temperature 33 °F 29 °F 53 °F (2001)
Min Temperature 15 °F 10 °F -16 °F (1958)
Degree Days  
Heating Degree Days 41    
Moisture  
Dew Point 21 °F    
Average Humidity 77    
Maximum Humidity 93    
Minimum Humidity 64    
Precipitation  
Precipitation 0.00 in - - ()
Sea Level Pressure  
Sea Level Pressure 30.14 in    
Wind  
Wind Speed 18 mph (NW)    
Max Wind Speed 28 mph    
Max Gust Speed 36 mph    
Visibility 10 miles    
Events      
Averages and records for this station are not official NWS values.
T = Trace of Precipitation, MM = Missing Value Source: NWS Daily Summary

Daily Weather History Graph

Daily Weather History Graph

Search for Another Location

Airport or City:

Trip Planner

Search our weather history database for the weather conditions in past years. The results will help you decide how hot, cold, wet, or windy it might be!

Date:

Astronomy

Dec. 15, 2011 Rise Set
Actual Time 7:48 AM CST 4:48 PM CST
Civil Twilight 7:15 AM CST 5:21 PM CST
Nautical Twilight 6:39 AM CST 5:57 PM CST
Astronomical Twilight 6:05 AM CST 6:31 PM CST
Moon 10:23 PM CST (12/15) 10:58 AM CST (12/15)
Length of Visible Light 10h 05m
Length of Day
9h 00m
Waning Gibbous, 74% of the Moon is Illuminated
Dec 15
Waning Gibbous
Dec 17
Last Quarter
Dec 24
New
Jan 1
First Quarter
Jan 9
Full

Hourly Weather History & Observations

Time (CST) Temp. Windchill Dew Point Humidity Pressure Visibility Wind Dir Wind Speed Gust Speed Precip Events Conditions
12:35 AM 33.8 °F 23.9 °F 28.4 °F 81% 29.82 in 10.0 mi NW 15.0 mph - N/A   Overcast
12:55 AM 33.8 °F 21.6 °F 26.6 °F 75% 29.83 in 10.0 mi NW 23.0 mph 29.9 mph N/A   Overcast
1:15 AM 33.8 °F 21.9 °F 28.4 °F 81% 29.83 in 10.0 mi NW 21.9 mph 31.1 mph N/A   Overcast
1:35 AM 32.0 °F 18.4 °F 28.4 °F 87% 29.84 in 10.0 mi NW 26.5 mph 33.4 mph N/A   Overcast
1:55 AM 30.2 °F 18.5 °F 26.6 °F 86% 29.85 in 10.0 mi NNW 17.3 mph 33.4 mph N/A   Overcast
2:55 AM 30.2 °F 16.2 °F 26.6 °F 86% 29.90 in 3.0 mi NW 25.3 mph 32.2 mph N/A   Overcast
3:15 AM 28.4 °F 13.8 °F 24.8 °F 86% 29.91 in 4.0 mi NNW 25.3 mph 34.5 mph N/A   Overcast
3:35 AM 28.4 °F 15.1 °F 23.0 °F 80% 29.92 in 10.0 mi NNW 20.7 mph 27.6 mph N/A   Overcast
3:55 AM 28.4 °F 15.4 °F 24.8 °F 86% 29.93 in 10.0 mi NNW 19.6 mph 34.5 mph N/A   Overcast
4:15 AM 28.4 °F 13.5 °F 24.8 °F 86% 29.94 in 10.0 mi NW 26.5 mph 34.5 mph N/A   Overcast
4:35 AM 28.4 °F 13.3 °F 24.8 °F 86% 29.95 in 10.0 mi NW 27.6 mph 35.7 mph N/A   Overcast
4:55 AM 28.4 °F 14.7 °F 24.8 °F 86% 29.95 in 10.0 mi NW 21.9 mph 34.5 mph N/A   Overcast
5:15 AM 28.4 °F 15.1 °F 23.0 °F 80% 29.96 in 10.0 mi NW 20.7 mph 27.6 mph N/A   Overcast
5:35 AM 30.2 °F 17.4 °F 23.0 °F 75% 29.97 in 10.0 mi NW 20.7 mph 29.9 mph N/A   Overcast
6:35 AM 30.2 °F 16.8 °F 23.0 °F 75% 30.00 in 10.0 mi NW 23.0 mph 29.9 mph N/A   Overcast
6:55 AM 30.2 °F 17.4 °F 23.0 °F 75% 30.01 in 10.0 mi NW 20.7 mph 33.4 mph N/A   Overcast
7:15 AM 30.2 °F 16.2 °F 21.2 °F 69% 30.02 in 10.0 mi NW 25.3 mph 34.5 mph N/A   Overcast
7:35 AM 30.2 °F 17.4 °F 23.0 °F 75% 30.03 in 10.0 mi NW 20.7 mph 31.1 mph N/A   Overcast
7:55 AM 30.2 °F 17.8 °F 21.2 °F 69% 30.05 in 10.0 mi NW 19.6 mph 24.2 mph N/A   Overcast
8:15 AM 30.2 °F 18.5 °F 23.0 °F 75% 30.06 in 10.0 mi WNW 17.3 mph 21.9 mph N/A   Overcast
8:35 AM 30.2 °F 16.8 °F 21.2 °F 69% 30.06 in 10.0 mi NW 23.0 mph 28.8 mph N/A   Overcast
8:55 AM 30.2 °F 17.4 °F 21.2 °F 69% 30.07 in 10.0 mi NW 20.7 mph 29.9 mph N/A   Overcast
9:15 AM 30.2 °F 17.4 °F 21.2 °F 69% 30.09 in 10.0 mi NW 20.7 mph 28.8 mph N/A   Overcast
9:35 AM 30.2 °F 18.1 °F 21.2 °F 69% 30.09 in 10.0 mi NNW 18.4 mph 28.8 mph N/A   Overcast
9:55 AM 30.2 °F 17.8 °F 21.2 °F 69% 30.10 in 10.0 mi NW 19.6 mph 28.8 mph N/A   Overcast
10:15 AM 30.2 °F 17.8 °F 21.2 °F 69% 30.11 in 10.0 mi NNW 19.6 mph 31.1 mph N/A   Overcast
10:35 AM 30.2 °F 16.8 °F 21.2 °F 69% 30.12 in 10.0 mi NW 23.0 mph 33.4 mph N/A   Overcast
10:55 AM 30.2 °F 17.1 °F 21.2 °F 69% 30.13 in 10.0 mi NW 21.9 mph 31.1 mph N/A   Overcast
11:15 AM 30.2 °F 16.5 °F 21.2 °F 69% 30.13 in 10.0 mi NW 24.2 mph 32.2 mph N/A   Overcast
11:35 AM 30.2 °F 17.8 °F 21.2 °F 69% 30.14 in 10.0 mi NW 19.6 mph 31.1 mph N/A   Overcast
11:55 AM 30.2 °F 17.4 °F 21.2 °F 69% 30.14 in 10.0 mi NW 20.7 mph 27.6 mph N/A   Overcast
12:15 PM 30.2 °F 17.4 °F 21.2 °F 69% 30.14 in 10.0 mi NNW 20.7 mph 32.2 mph N/A   Overcast
12:35 PM 30.2 °F 18.5 °F 23.0 °F 75% 30.14 in 10.0 mi NNW 17.3 mph - N/A   Overcast
12:55 PM 30.2 °F 17.8 °F 21.2 °F 69% 30.16 in 10.0 mi NNW 19.6 mph 26.5 mph N/A   Overcast
1:15 PM 30.2 °F 17.8 °F 19.4 °F 64% 30.16 in 10.0 mi NNW 19.6 mph 23.0 mph N/A   Overcast
1:35 PM 30.2 °F 17.8 °F 21.2 °F 69% 30.17 in 10.0 mi NNW 19.6 mph 27.6 mph N/A   Overcast
1:55 PM 30.2 °F 18.9 °F 21.2 °F 69% 30.18 in 10.0 mi NW 16.1 mph 24.2 mph N/A   Overcast
2:15 PM 32.0 °F 21.2 °F 21.2 °F 64% 30.19 in 10.0 mi NNW 16.1 mph 24.2 mph N/A   Overcast
2:35 PM 30.2 °F 17.8 °F 21.2 °F 69% 30.19 in 10.0 mi NW 19.6 mph 24.2 mph N/A   Overcast
2:55 PM 30.2 °F 19.3 °F 21.2 °F 69% 30.20 in 10.0 mi NNW 15.0 mph 20.7 mph N/A   Overcast
3:15 PM 30.2 °F 18.9 °F 21.2 °F 69% 30.21 in 10.0 mi NNW 16.1 mph 25.3 mph N/A   Overcast
3:35 PM 30.2 °F 19.8 °F 21.2 °F 69% 30.22 in 10.0 mi NNW 13.8 mph 24.2 mph N/A   Overcast
3:55 PM 30.2 °F 19.3 °F 21.2 °F 69% 30.23 in 10.0 mi NNW 15.0 mph - N/A   Overcast
4:15 PM 28.4 °F 17.5 °F 19.4 °F 69% 30.24 in 10.0 mi NNW 13.8 mph - N/A   Scattered Clouds
4:35 PM 28.4 °F 19.7 °F 19.4 °F 69% 30.25 in 10.0 mi NNW 9.2 mph - N/A   Clear
4:55 PM 26.6 °F 17.5 °F 19.4 °F 74% 30.25 in 10.0 mi NNW 9.2 mph - N/A   Clear
5:15 PM 26.6 °F 15.7 °F 19.4 °F 74% 30.25 in 10.0 mi NNW 12.7 mph - N/A   Clear
5:35 PM 26.6 °F 18.2 °F 19.4 °F 74% 30.26 in 10.0 mi North 8.1 mph - N/A   Clear
5:55 PM 24.8 °F 19.1 °F 19.4 °F 80% 30.27 in 10.0 mi NW 4.6 mph - N/A   Clear
6:15 PM 24.8 °F 20.5 °F 19.4 °F 80% 30.28 in 10.0 mi WNW 3.5 mph - N/A   Clear
6:35 PM 23.0 °F 17.0 °F 17.6 °F 80% 30.28 in 10.0 mi WNW 4.6 mph - N/A   Clear
6:55 PM 21.2 °F 13.6 °F 17.6 °F 86% 30.29 in 10.0 mi West 5.8 mph - N/A   Clear
7:15 PM 19.4 °F 9.5 °F 17.6 °F 93% 30.29 in 10.0 mi WNW 8.1 mph - N/A   Clear
7:35 PM 21.2 °F 11.7 °F 19.4 °F 93% 30.31 in 10.0 mi WNW 8.1 mph - N/A   Clear
7:55 PM 21.2 °F 12.6 °F 17.6 °F 86% 30.31 in 10.0 mi WNW 6.9 mph - N/A   Clear
8:15 PM 19.4 °F 12.8 °F 15.8 °F 86% 30.33 in 10.0 mi West 4.6 mph - N/A   Clear
8:35 PM 19.4 °F 11.5 °F 15.8 °F 86% 30.34 in 10.0 mi WNW 5.8 mph - N/A   Clear
8:55 PM 19.4 °F 12.8 °F 15.8 °F 86% 30.35 in 10.0 mi WNW 4.6 mph - N/A   Clear
9:35 PM 19.4 °F 14.3 °F 15.8 °F 86% 30.35 in 10.0 mi WNW 3.5 mph - N/A   Clear
9:55 PM 19.4 °F 12.8 °F 15.8 °F 86% 30.36 in 10.0 mi WNW 4.6 mph - N/A   Clear
10:15 PM 17.6 °F 9.3 °F 14.0 °F 86% 30.36 in 10.0 mi WNW 5.8 mph - N/A   Clear
10:35 PM 17.6 °F 10.7 °F 15.8 °F 93% 30.37 in 10.0 mi WNW 4.6 mph - N/A   Clear
10:55 PM 15.8 °F - 12.2 °F 86% 30.37 in 10.0 mi Calm Calm - N/A   Clear
11:15 PM 15.8 °F - 14.0 °F 93% 30.38 in 10.0 mi Calm Calm - N/A   Clear
11:35 PM 15.8 °F - 12.2 °F 86% 30.38 in 10.0 mi Calm Calm - N/A   Clear
11:55 PM 15.8 °F 10.2 °F 12.2 °F 86% 30.38 in 10.0 mi North 3.5 mph - N/A   Clear